Volgo-balt 229 — UHZF — position and weather

sailwx.info

Track history (hours):
 
Tides and Currents Weather Stations Pressure Air Temp Water Temp Dewpoint Dewpoint Depression Visibility Wind Speed Wind Dir Waves Ship Positions

Volgo-balt 229

Last reported at 2016-Dec-08 03:28 UTC. Time now 2016-Dec-09 00:04 UTC.
Position N 55°41' E 015°06'.

Length 113 m; draft 2.6 m.

Type: Ship. MMSI: 273336300.

Date/timePositionNaut miles runAvg speedWind from/ knotsBaromVisibWave heightAir tempDewpointWater temp
2016-Dec-08 03:28N 55°41' E 015°06'8 8.8
2016-Dec-08 02:31N 55°35' E 014°57'9 9.0
2016-Dec-08 01:33N 55°28' E 014°47'8 8.4
2016-Dec-08 00:33N 55°22' E 014°36'8 8.0
2016-Dec-07 23:33N 55°16' E 014°28'8 8.3
2016-Dec-07 22:33N 55°10' E 014°17'8 8.3
2016-Dec-07 21:33N 55°09' E 014°03'37 7.3
2016-Dec-07 16:30N 55°12' E 012°59'6 6.7
2016-Dec-07 15:32N 55°15' E 012°48'7 7.2
2016-Dec-07 14:30N 55°19' E 012°37'6 6.7
2016-Dec-07 13:33N 55°25' E 012°40'7 6.6
2016-Dec-07 12:33N 55°31' E 012°42'6 5.8
2016-Dec-07 11:33N 55°37' E 012°42'5 5.4
2016-Dec-07 10:33N 55°43' E 012°41'7 6.8
2016-Dec-07 09:33N 55°49' E 012°40'6 6.4
2016-Dec-07 08:33N 55°56' E 012°39'6 6.4
2016-Dec-07 07:33N 56°02' E 012°39'6 6.1
2016-Dec-07 06:33N 56°07' E 012°32'8 8.3
2016-Dec-07 05:33N 56°11' E 012°19'  
2016-Dec-02 10:32N 56°14' E 012°16'6 6.5
2016-Dec-02 09:33N 56°10' E 012°26'7 6.7
2016-Dec-02 08:33N 56°06' E 012°35'6 6.0
2016-Dec-02 07:33N 56°01' E 012°41'5 4.7
2016-Dec-02 06:33N 55°56' E 012°41'0 0.0
2016-Dec-02 05:32N 55°56' E 012°41'0 0.0
2016-Dec-02 04:32N 55°56' E 012°41'0 0.0
2016-Dec-02 03:32N 55°56' E 012°41'0 0.0
2016-Dec-02 02:32N 55°56' E 012°41'0 0.0
2016-Dec-02 01:31N 55°56' E 012°41'0 0.0
2016-Dec-02 00:31N 55°56' E 012°41'0 0.0
2016-Dec-01 23:28N 55°56' E 012°41'0 0.0
2016-Dec-01 22:31N 55°56' E 012°41'0 0.0
2016-Dec-01 21:31N 55°56' E 012°41'0 0.0
2016-Dec-01 20:31N 55°56' E 012°41'0 0.0
2016-Dec-01 19:31N 55°56' E 012°41'0 0.0
2016-Dec-01 18:31N 55°56' E 012°41'0 0.0
2016-Dec-01 17:31N 55°56' E 012°41'0 0.0
2016-Dec-01 16:31N 55°56' E 012°41'0 0.0
2016-Dec-01 15:31N 55°56' E 012°41'0 0.0
2016-Dec-01 14:31N 55°56' E 012°41'0 0.0
2016-Dec-01 13:31N 55°56' E 012°41'3 3.5
2016-Dec-01 12:33N 55°53' E 012°44'7 6.8
2016-Dec-01 11:34N 55°47' E 012°43'7 7.0
2016-Dec-01 10:34N 55°40' E 012°42'7 6.7
2016-Dec-01 09:34N 55°33' E 012°42'7 7.2
2016-Dec-01 08:34N 55°26' E 012°42'7 7.4
2016-Dec-01 07:34N 55°18' E 012°42'30 6.7
2016-Dec-01 03:04N 55°15' E 013°34'5 7.4
2016-Dec-01 02:26N 55°15' E 013°43'7 7.3
2016-Dec-01 01:33N 55°14' E 013°54'7 7.3
2016-Dec-01 00:34N 55°14' E 014°07'7 6.8
2016-Nov-30 23:33N 55°15' E 014°18'7 7.3
2016-Nov-30 22:33N 55°21' E 014°26'7 7.4
2016-Nov-30 21:33N 55°27' E 014°34'7 7.3
2016-Nov-30 20:33N 55°31' E 014°45'7 6.8
2016-Nov-30 19:32N 55°35' E 014°55'7 6.7
2016-Nov-30 18:33N 55°39' E 015°05'7 7.0
2016-Nov-30 17:32N 55°43' E 015°15'  
Track history (hours):
 
Tides and Currents Weather Stations Pressure Air Temp Water Temp Dewpoint Dewpoint Depression Visibility Wind Speed Wind Dir Waves Ship Positions

Volgo-balt 229

Last reported at 2016-Dec-08 03:28 UTC. Time now 2016-Dec-09 00:04 UTC.
Position N 55°41' E 015°06'.

Length 113 m; draft 2.6 m.

Type: Ship. MMSI: 273336300.

Date/timePositionNaut miles runAvg speedWind from/ knotsBaromVisibWave heightAir tempDewpointWater temp
2016-Dec-08 03:28N 55°41' E 015°06'8 8.8
2016-Dec-08 02:31N 55°35' E 014°57'9 9.0
2016-Dec-08 01:33N 55°28' E 014°47'8 8.4
2016-Dec-08 00:33N 55°22' E 014°36'8 8.0
2016-Dec-07 23:33N 55°16' E 014°28'8 8.3
2016-Dec-07 22:33N 55°10' E 014°17'8 8.3
2016-Dec-07 21:33N 55°09' E 014°03'37 7.3
2016-Dec-07 16:30N 55°12' E 012°59'6 6.7
2016-Dec-07 15:32N 55°15' E 012°48'7 7.2
2016-Dec-07 14:30N 55°19' E 012°37'6 6.7
2016-Dec-07 13:33N 55°25' E 012°40'7 6.6
2016-Dec-07 12:33N 55°31' E 012°42'6 5.8
2016-Dec-07 11:33N 55°37' E 012°42'5 5.4
2016-Dec-07 10:33N 55°43' E 012°41'7 6.8
2016-Dec-07 09:33N 55°49' E 012°40'6 6.4
2016-Dec-07 08:33N 55°56' E 012°39'6 6.4
2016-Dec-07 07:33N 56°02' E 012°39'6 6.1
2016-Dec-07 06:33N 56°07' E 012°32'8 8.3
2016-Dec-07 05:33N 56°11' E 012°19'  
2016-Dec-02 10:32N 56°14' E 012°16'6 6.5
2016-Dec-02 09:33N 56°10' E 012°26'7 6.7
2016-Dec-02 08:33N 56°06' E 012°35'6 6.0
2016-Dec-02 07:33N 56°01' E 012°41'5 4.7
2016-Dec-02 06:33N 55°56' E 012°41'0 0.0
2016-Dec-02 05:32N 55°56' E 012°41'0 0.0
2016-Dec-02 04:32N 55°56' E 012°41'0 0.0
2016-Dec-02 03:32N 55°56' E 012°41'0 0.0
2016-Dec-02 02:32N 55°56' E 012°41'0 0.0
2016-Dec-02 01:31N 55°56' E 012°41'0 0.0
2016-Dec-02 00:31N 55°56' E 012°41'0 0.0
2016-Dec-01 23:28N 55°56' E 012°41'0 0.0
2016-Dec-01 22:31N 55°56' E 012°41'0 0.0
2016-Dec-01 21:31N 55°56' E 012°41'0 0.0
2016-Dec-01 20:31N 55°56' E 012°41'0 0.0
2016-Dec-01 19:31N 55°56' E 012°41'0 0.0
2016-Dec-01 18:31N 55°56' E 012°41'0 0.0
2016-Dec-01 17:31N 55°56' E 012°41'0 0.0
2016-Dec-01 16:31N 55°56' E 012°41'0 0.0
2016-Dec-01 15:31N 55°56' E 012°41'0 0.0
2016-Dec-01 14:31N 55°56' E 012°41'0 0.0
2016-Dec-01 13:31N 55°56' E 012°41'3 3.5
2016-Dec-01 12:33N 55°53' E 012°44'7 6.8
2016-Dec-01 11:34N 55°47' E 012°43'7 7.0
2016-Dec-01 10:34N 55°40' E 012°42'7 6.7
2016-Dec-01 09:34N 55°33' E 012°42'7 7.2
2016-Dec-01 08:34N 55°26' E 012°42'7 7.4
2016-Dec-01 07:34N 55°18' E 012°42'30 6.7
2016-Dec-01 03:04N 55°15' E 013°34'5 7.4
2016-Dec-01 02:26N 55°15' E 013°43'7 7.3
2016-Dec-01 01:33N 55°14' E 013°54'7 7.3
2016-Dec-01 00:34N 55°14' E 014°07'7 6.8
2016-Nov-30 23:33N 55°15' E 014°18'7 7.3
2016-Nov-30 22:33N 55°21' E 014°26'7 7.4
2016-Nov-30 21:33N 55°27' E 014°34'7 7.3
2016-Nov-30 20:33N 55°31' E 014°45'7 6.8
2016-Nov-30 19:32N 55°35' E 014°55'7 6.7
2016-Nov-30 18:33N 55°39' E 015°05'7 7.0
2016-Nov-30 17:32N 55°43' E 015°15'  

Dump ship's entire track history